Time;durP1;ratioP1;P1;durP2;ratioP2;P2;SDS_P1;SDS_P2;PMS_P1;PMS_P2;Temp;Humidity;BMP_temperature;BMP_pressure;BME280_temperature;BME280_humidity;BME280_pressure;Samples;Min_cycle;Max_cycle;Signal;HPM_P1;HPM_P2
2021/10/30 00:01:44;;;;;;;;;15.50;15.50;;;;;20.76;52.07;99460.88;5058547;28;45267;-78
2021/10/30 00:04:13;;;;;;;;;14.25;13.25;;;;;20.77;51.90;99460.84;5041599;28;51075;-78
2021/10/30 00:06:38;;;;;;;;;15.75;14.75;;;;;20.77;52.22;99462.63;5059174;28;45349;-78
2021/10/30 00:09:04;;;;;;;;;19.50;15.50;;;;;20.76;51.92;99448.53;5059410;28;56480;-78
2021/10/30 00:11:29;;;;;;;;;16.00;14.25;;;;;20.74;52.14;99442.41;5059821;28;45227;-78
2021/10/30 00:13:54;;;;;;;;;18.25;15.50;;;;;20.74;52.06;99444.22;5041548;28;47949;-79
2021/10/30 00:16:21;;;;;;;;;18.00;15.75;;;;;20.73;52.04;99453.97;5026145;28;59314;-79
2021/10/30 00:18:46;;;;;;;;;15.75;13.50;;;;;20.72;51.95;99436.34;5045836;28;45474;-79
2021/10/30 00:21:12;;;;;;;;;14.25;13.50;;;;;20.73;51.87;99437.19;5045371;28;45320;-79
2021/10/30 00:23:37;;;;;;;;;15.25;12.75;;;;;20.70;51.94;99427.63;5028604;28;46682;-78
2021/10/30 00:26:03;;;;;;;;;14.75;14.75;;;;;20.68;52.28;99421.56;5045399;28;45325;-78
2021/10/30 00:28:28;;;;;;;;;13.75;12.50;;;;;20.69;52.28;99419.75;5045170;28;45364;-79
2021/10/30 00:30:53;;;;;;;;;16.25;14.50;;;;;20.69;52.32;99411.81;5061242;28;57941;-79
2021/10/30 00:33:19;;;;;;;;;14.50;13.00;;;;;20.69;52.33;99409.16;5063137;28;45786;-78
2021/10/30 00:35:46;;;;;;;;;15.00;13.00;;;;;20.65;52.02;99408.44;5061962;28;45260;-78
2021/10/30 00:38:12;;;;;;;;;15.75;15.00;;;;;20.67;52.24;99414.50;5029241;28;45420;-78
2021/10/30 00:40:37;;;;;;;;;18.00;15.25;;;;;20.66;51.90;99415.44;5061460;28;58789;-79
2021/10/30 00:43:09;;;;;;;;;15.25;13.25;;;;;20.64;52.14;99412.03;5061016;28;60927;-79
2021/10/30 00:45:39;;;;;;;;;14.00;14.00;;;;;20.55;52.35;99386.88;5061496;28;45473;-78
2021/10/30 00:48:05;;;;;;;;;13.75;13.75;;;;;20.61;52.01;99396.31;5063066;28;45272;-78
2021/10/30 00:50:30;;;;;;;;;14.00;13.50;;;;;20.63;52.26;99399.72;5061510;28;45364;-78
2021/10/30 00:52:56;;;;;;;;;13.00;13.00;;;;;20.64;52.21;99400.56;5062346;28;45433;-78
2021/10/30 00:55:22;;;;;;;;;10.75;10.00;;;;;20.64;52.84;99396.13;5044171;28;58617;-78
2021/10/30 00:57:47;;;;;;;;;12.25;10.75;;;;;20.66;52.31;99398.69;5028265;28;45367;-78
2021/10/30 01:00:13;;;;;;;;;14.50;13.00;;;;;20.65;52.08;99397.84;5060482;28;68419;-78
2021/10/30 01:02:38;;;;;;;;;12.00;12.00;;;;;20.65;52.06;99394.31;5044635;28;47932;-78
2021/10/30 01:05:07;;;;;;;;;13.50;10.25;;;;;20.66;52.38;99386.28;5044531;28;45263;-78
2021/10/30 01:07:33;;;;;;;;;13.00;10.75;;;;;20.67;52.23;99379.19;5045382;28;45524;-78
2021/10/30 01:09:58;;;;;;;;;11.00;11.00;;;;;20.71;52.01;99386.06;5043838;28;61236;-78
2021/10/30 01:12:27;;;;;;;;;13.75;11.75;;;;;20.71;52.01;99378.97;5061331;28;46458;-77
2021/10/30 01:14:52;;;;;;;;;12.25;10.25;;;;;20.73;52.30;99371.78;5044372;28;45396;-77
2021/10/30 01:18:01;;;;;;;;;11.25;10.00;;;;;20.73;52.33;99374.41;5044752;28;45362;-78
2021/10/30 01:20:48;;;;;;;;;10.00;9.25;;;;;20.74;52.03;99362.00;5062465;28;45192;-78
2021/10/30 01:23:12;;;;;;;;;13.00;10.75;;;;;20.73;52.19;99368.25;5060861;28;46103;-78
2021/10/30 01:25:41;;;;;;;;;13.00;10.25;;;;;20.72;52.50;99359.47;5062208;28;45531;-78
2021/10/30 01:28:06;;;;;;;;;12.00;11.25;;;;;20.71;52.24;99363.06;5043685;28;45471;-78
2021/10/30 01:30:32;;;;;;;;;11.25;9.75;;;;;20.68;52.03;99349.97;5077861;27;45552;-78
2021/10/30 01:32:59;;;;;;;;;12.75;11.00;;;;;20.65;52.28;99343.97;5060946;28;45988;-79
2021/10/30 01:35:32;;;;;;;;;12.75;11.50;;;;;20.68;52.45;99349.97;5044310;28;45313;-78
2021/10/30 01:38:00;;;;;;;;;11.75;9.75;;;;;20.63;52.22;99337.91;5061277;28;45412;-78
2021/10/30 01:40:30;;;;;;;;;9.00;9.00;;;;;20.63;52.15;99341.41;5060526;28;51974;-78
2021/10/30 01:44:00;;;;;;;;;10.50;10.50;;;;;20.66;52.29;99340.38;5044722;28;45503;-79
2021/10/30 01:46:28;;;;;;;;;11.00;8.00;;;;;20.65;52.32;99338.66;5058563;28;45177;-78
2021/10/30 01:48:54;;;;;;;;;12.75;12.25;;;;;20.64;52.59;99343.09;5044000;28;45435;-78
2021/10/30 01:51:26;;;;;;;;;11.00;10.25;;;;;20.61;52.72;99322.06;5060843;28;45648;-78
2021/10/30 01:53:51;;;;;;;;;13.00;12.00;;;;;20.62;52.37;99329.09;5043856;28;46446;-78
2021/10/30 01:56:17;;;;;;;;;12.75;11.25;;;;;20.60;52.65;99313.28;5043923;28;45335;-78
2021/10/30 01:58:42;;;;;;;;;8.75;8.25;;;;;20.60;52.90;99317.72;5060499;28;45254;-78
2021/10/30 02:01:10;;;;;;;;;8.75;7.25;;;;;20.60;52.87;99318.56;5027098;28;45628;-79
2021/10/30 02:03:35;;;;;;;;;9.75;8.50;;;;;20.58;52.82;99307.19;5060794;28;47544;-78
2021/10/30 02:06:02;;;;;;;;;8.00;7.00;;;;;20.58;52.75;99307.19;5043775;28;45322;-78
2021/10/30 02:08:29;;;;;;;;;11.75;9.75;;;;;20.58;52.66;99295.72;5043812;28;45324;-78
2021/10/30 02:10:54;;;;;;;;;7.00;7.00;;;;;20.58;53.00;99285.97;5043918;28;45587;-78
2021/10/30 02:13:19;;;;;;;;;8.00;8.00;;;;;20.59;53.01;99276.25;5059164;28;67317;-78
2021/10/30 02:15:46;;;;;;;;;13.00;8.50;;;;;20.58;53.11;99271.88;5049680;28;46618;-78
2021/10/30 02:18:11;;;;;;;;;9.25;8.00;;;;;20.62;52.95;99264.63;5043561;28;45314;-78
2021/10/30 02:20:37;;;;;;;;;8.75;7.50;;;;;20.61;53.04;99253.16;5043925;28;45543;-78
2021/10/30 02:23:02;;;;;;;;;11.25;8.75;;;;;20.65;53.04;99265.28;5043395;28;48345;-78
2021/10/30 02:25:27;;;;;;;;;8.00;8.00;;;;;20.62;53.06;99244.25;5026844;28;45416;-78
2021/10/30 02:27:53;;;;;;;;;8.75;8.50;;;;;20.66;52.81;99252.88;5043198;28;45657;-78
2021/10/30 02:30:19;;;;;;;;;9.75;8.00;;;;;20.67;53.13;99258.09;5043126;28;53250;-78
2021/10/30 02:32:45;;;;;;;;;9.25;8.75;;;;;20.69;52.88;99247.44;5043335;28;48022;-78
2021/10/30 02:35:13;;;;;;;;;8.00;8.00;;;;;20.69;53.02;99244.78;5043232;28;49681;-78
2021/10/30 02:37:39;;;;;;;;;9.00;9.00;;;;;20.70;52.99;99246.47;5060109;28;45308;-78
2021/10/30 02:40:06;;;;;;;;;8.25;8.25;;;;;20.69;53.32;99235.03;5043340;28;45509;-78
2021/10/30 02:42:31;;;;;;;;;11.00;10.00;;;;;20.69;53.27;99231.53;5042765;28;45279;-78
2021/10/30 02:44:57;;;;;;;;;8.25;8.25;;;;;20.66;53.22;99229.03;5059937;28;45269;-78
2021/10/30 02:47:22;;;;;;;;;9.75;9.00;;;;;20.67;52.89;99228.94;5059807;28;45316;-78
2021/10/30 02:49:48;;;;;;;;;7.25;7.25;;;;;20.66;53.04;99224.56;5059627;28;52004;-78
2021/10/30 02:52:13;;;;;;;;;10.25;9.50;;;;;20.64;53.35;99223.81;5055730;28;58402;-78
2021/10/30 02:54:38;;;;;;;;;10.25;9.25;;;;;20.62;52.87;99223.06;5035260;28;57870;-78
2021/10/30 02:57:04;;;;;;;;;9.25;9.25;;;;;20.60;52.92;99209.88;5042360;28;56460;-78
2021/10/30 02:59:29;;;;;;;;;9.00;9.00;;;;;20.62;53.22;99207.16;5048782;28;45330;-78
2021/10/30 03:01:55;;;;;;;;;9.25;7.50;;;;;20.60;53.11;99198.44;5041242;28;66419;-78
2021/10/30 03:04:20;;;;;;;;;11.50;9.00;;;;;20.59;53.32;99202.88;5042484;28;52850;-78
2021/10/30 03:06:45;;;;;;;;;13.25;11.00;;;;;20.56;53.34;99186.28;5042861;28;45339;-78
2021/10/30 03:09:11;;;;;;;;;7.25;7.25;;;;;20.58;53.41;99184.38;5048973;28;45360;-78
2021/10/30 03:11:36;;;;;;;;;9.25;8.75;;;;;20.57;53.50;99164.13;5058642;28;56723;-78
2021/10/30 03:14:02;;;;;;;;;12.50;11.00;;;;;20.54;53.30;99157.22;5059360;28;45622;-78
2021/10/30 03:16:27;;;;;;;;;11.75;10.00;;;;;20.55;53.12;99158.91;5038492;28;45293;-78
2021/10/30 03:18:53;;;;;;;;;15.50;10.25;;;;;20.52;53.17;99142.34;5051997;28;45394;-78
2021/10/30 03:21:18;;;;;;;;;10.50;9.00;;;;;20.52;53.01;99143.22;5042342;28;45193;-77
2021/10/30 03:23:44;;;;;;;;;11.00;8.75;;;;;20.53;53.30;99136.97;5025677;28;54947;-77
2021/10/30 03:26:09;;;;;;;;;12.25;9.00;;;;;20.52;53.24;99137.91;5042022;28;50803;-77
2021/10/30 03:28:34;;;;;;;;;10.50;10.50;;;;;20.54;53.21;99135.16;5025807;28;45540;-77
2021/10/30 03:31:00;;;;;;;;;7.50;7.00;;;;;20.54;53.08;99136.00;5058518;28;54564;-77
2021/10/30 03:33:26;;;;;;;;;13.50;11.00;;;;;20.57;53.48;99129.66;5042631;28;45276;-77
2021/10/30 03:35:51;;;;;;;;;8.00;7.25;;;;;20.55;53.06;99127.13;5054847;28;45487;-77
2021/10/30 03:38:16;;;;;;;;;11.75;8.75;;;;;20.58;52.74;99118.13;5051349;28;45253;-78
2021/10/30 03:40:42;;;;;;;;;12.25;10.00;;;;;20.58;52.93;99115.47;5058831;28;48215;-77
2021/10/30 03:43:07;;;;;;;;;10.75;9.00;;;;;20.59;52.90;99111.91;5058745;28;45351;-77
2021/10/30 03:45:33;;;;;;;;;10.00;10.00;;;;;20.59;52.93;99104.81;5058364;28;53584;-77
2021/10/30 03:48:02;;;;;;;;;9.25;9.25;;;;;20.61;52.84;99104.72;5041927;28;45299;-77
2021/10/30 03:50:27;;;;;;;;;13.25;11.25;;;;;20.62;52.88;99109.06;5041479;28;48218;-77
2021/10/30 03:52:53;;;;;;;;;9.50;9.00;;;;;20.63;52.54;99108.13;5058546;28;55196;-77
2021/10/30 03:55:18;;;;;;;;;13.50;9.75;;;;;20.64;52.67;99114.28;5041696;28;53450;-77
2021/10/30 03:57:44;;;;;;;;;13.00;8.50;;;;;20.61;52.40;99104.72;5059967;28;45216;-77
2021/10/30 04:00:09;;;;;;;;;12.75;7.75;;;;;20.60;52.32;99105.66;5041590;28;49175;-77
2021/10/30 04:02:35;;;;;;;;;12.25;8.75;;;;;20.62;52.70;99103.75;5042099;28;45193;-77
2021/10/30 04:05:00;;;;;;;;;10.25;9.00;;;;;20.60;52.70;99103.00;5058214;28;52582;-77
2021/10/30 04:07:26;;;;;;;;;8.00;8.00;;;;;20.60;52.58;99103.00;5058300;28;59371;-77
2021/10/30 04:09:51;;;;;;;;;10.00;9.50;;;;;20.61;52.58;99112.66;5059611;28;46224;-79
2021/10/30 04:12:16;;;;;;;;;9.50;7.25;;;;;20.58;52.60;99111.03;5058289;28;54331;-79
2021/10/30 04:14:42;;;;;;;;;12.75;9.75;;;;;20.58;52.38;99094.25;5058147;28;56270;-79
2021/10/30 04:17:07;;;;;;;;;8.50;8.00;;;;;20.56;52.67;99107.63;5041647;28;50926;-79
2021/10/30 04:19:32;;;;;;;;;10.00;8.00;;;;;20.55;52.53;99102.41;5053256;28;47090;-79
2021/10/30 04:21:58;;;;;;;;;11.00;10.00;;;;;20.54;52.52;99098.91;5049677;28;45245;-77
2021/10/30 04:24:23;;;;;;;;;10.25;10.25;;;;;20.55;52.66;99105.91;5041238;28;54685;-77
2021/10/30 04:26:49;;;;;;;;;10.50;10.50;;;;;20.54;52.34;99112.16;5041688;28;49943;-77
2021/10/30 04:29:15;;;;;;;;;10.75;9.75;;;;;20.55;52.37;99115.66;5024029;28;66434;-77
2021/10/30 04:31:41;;;;;;;;;10.25;9.00;;;;;20.54;52.34;99103.34;5041671;28;45426;-77
2021/10/30 04:34:07;;;;;;;;;9.00;9.00;;;;;20.52;52.35;99106.09;5025366;28;45431;-77
2021/10/30 04:36:35;;;;;;;;;8.50;8.00;;;;;20.53;52.70;99112.25;5045591;28;46065;-77
2021/10/30 04:39:01;;;;;;;;;9.00;8.25;;;;;20.50;52.65;99102.69;5040013;28;48279;-79
2021/10/30 04:41:26;;;;;;;;;9.50;8.00;;;;;20.49;52.90;99100.09;5058336;28;45258;-79
2021/10/30 04:43:52;;;;;;;;;10.75;9.00;;;;;20.51;52.62;99099.09;5041471;28;45267;-79
2021/10/30 04:46:21;;;;;;;;;8.25;6.50;;;;;20.51;52.62;99100.91;5058228;28;45410;-79
2021/10/30 04:48:46;;;;;;;;;9.50;8.00;;;;;20.51;52.70;99104.41;5057979;28;46392;-79
2021/10/30 04:51:12;;;;;;;;;7.50;7.25;;;;;20.50;52.72;99097.38;5059579;28;45263;-79
2021/10/30 04:53:39;;;;;;;;;9.00;8.00;;;;;20.51;52.87;99095.59;5041039;28;48367;-80
2021/10/30 04:56:05;;;;;;;;;8.50;8.50;;;;;20.53;52.79;99086.59;5041645;28;45432;-79
2021/10/30 04:58:31;;;;;;;;;8.00;7.50;;;;;20.55;52.67;99092.66;5040884;28;47125;-79
2021/10/30 05:00:56;;;;;;;;;6.25;6.00;;;;;20.57;52.76;99093.41;5040979;28;45278;-79
2021/10/30 05:03:22;;;;;;;;;6.25;6.25;;;;;20.57;52.81;99077.50;5026428;28;45380;-79
2021/10/30 05:05:48;;;;;;;;;8.75;8.00;;;;;20.59;52.74;99080.09;5044696;28;45427;-79
2021/10/30 05:08:13;;;;;;;;;8.25;7.00;;;;;20.58;52.88;99073.06;5027963;28;47061;-79
2021/10/30 05:10:39;;;;;;;;;8.25;7.00;;;;;20.60;52.80;99076.50;5062629;28;45466;-79
2021/10/30 05:13:04;;;;;;;;;9.00;8.00;;;;;20.60;53.23;99073.84;5027770;28;45386;-79
2021/10/30 05:15:29;;;;;;;;;8.00;8.00;;;;;20.58;52.97;99065.97;5061366;28;45445;-79
2021/10/30 05:17:55;;;;;;;;;5.50;5.50;;;;;20.58;53.01;99067.75;5061227;28;45982;-78
2021/10/30 05:20:21;;;;;;;;;7.50;7.50;;;;;20.58;52.99;99070.41;5044697;28;45419;-78
2021/10/30 05:22:46;;;;;;;;;9.50;6.50;;;;;20.58;53.24;99059.81;5044577;28;45298;-79
2021/10/30 05:25:11;;;;;;;;;10.00;8.00;;;;;20.57;52.99;99058.09;5060911;28;49670;-79
2021/10/30 05:27:40;;;;;;;;;8.75;7.75;;;;;20.57;52.83;99066.06;5060258;28;59432;-79
2021/10/30 05:30:05;;;;;;;;;5.50;5.50;;;;;20.56;53.14;99059.91;5043818;28;55754;-79
2021/10/30 05:32:31;;;;;;;;;8.50;7.50;;;;;20.56;52.99;99059.91;5061268;28;45480;-79
2021/10/30 05:34:56;;;;;;;;;7.75;6.50;;;;;20.55;53.07;99066.16;5077593;28;54764;-79
2021/10/30 05:37:21;;;;;;;;;9.25;7.25;;;;;20.53;53.10;99049.50;5094993;27;47986;-78
2021/10/30 05:39:47;;;;;;;;;8.50;7.25;;;;;20.55;53.12;99052.91;5094956;27;45443;-78
2021/10/30 05:42:13;;;;;;;;;5.75;5.75;;;;;20.52;53.20;99053.09;5061911;28;45203;-79
2021/10/30 05:44:39;;;;;;;;;7.00;6.00;;;;;20.54;53.26;99061.81;5043977;28;45482;-80
2021/10/30 05:47:09;;;;;;;;;6.00;6.00;;;;;20.55;53.17;99058.19;5061890;28;45414;-79
2021/10/30 05:49:38;;;;;;;;;6.75;6.75;;;;;20.54;53.24;99060.94;5063715;28;45332;-79
2021/10/30 05:52:05;;;;;;;;;8.00;7.00;;;;;20.54;53.47;99064.44;5077862;28;45464;-78
2021/10/30 05:54:30;;;;;;;;;5.50;5.50;;;;;20.53;53.42;99054.78;5040505;28;45426;-79
2021/10/30 05:56:55;;;;;;;;;7.00;6.25;;;;;20.54;53.53;99059.16;5042253;28;49101;-79
2021/10/30 05:59:21;;;;;;;;;7.50;7.50;;;;;20.54;53.50;99045.91;5060160;28;55069;-78
2021/10/30 06:01:46;;;;;;;;;7.50;6.75;;;;;20.54;53.65;99042.41;5060587;28;45512;-78
2021/10/30 06:04:12;;;;;;;;;8.25;5.25;;;;;20.56;53.40;99045.81;5043473;28;54023;-78
2021/10/30 06:06:37;;;;;;;;;6.50;6.50;;;;;20.55;53.35;99044.09;5061297;28;52141;-78
2021/10/30 06:09:03;;;;;;;;;4.25;3.75;;;;;20.57;53.50;99051.00;5044102;28;45309;-78
2021/10/30 06:11:28;;;;;;;;;5.50;5.50;;;;;20.59;53.20;99051.78;5060483;28;45289;-78
2021/10/30 06:13:54;;;;;;;;;5.00;5.00;;;;;20.59;53.58;99048.28;5042707;28;56655;-79
2021/10/30 06:16:19;;;;;;;;;8.00;7.00;;;;;20.63;53.60;99054.25;5042636;28;64077;-79
2021/10/30 06:18:45;;;;;;;;;5.50;4.75;;;;;20.62;53.53;99053.41;5048307;28;45174;-78
2021/10/30 06:21:10;;;;;;;;;6.75;5.00;;;;;20.63;53.50;99052.47;5041458;28;45246;-79
2021/10/30 06:23:36;;;;;;;;;7.00;7.00;;;;;20.63;53.35;99044.50;5026638;28;53578;-79
2021/10/30 06:26:02;;;;;;;;;7.25;7.00;;;;;20.66;53.70;99044.31;5060022;28;45351;-79
2021/10/30 06:28:27;;;;;;;;;6.25;5.25;;;;;20.69;53.37;99057.41;5043299;28;45285;-79
2021/10/30 06:30:53;;;;;;;;;5.00;4.75;;;;;20.70;53.45;99056.47;5026498;28;45190;-79
2021/10/30 06:33:19;;;;;;;;;5.00;5.00;;;;;20.67;53.43;99050.47;5060947;28;61139;-79
2021/10/30 06:35:44;;;;;;;;;7.50;5.75;;;;;20.70;53.53;99051.16;5061086;28;46226;-80
2021/10/30 06:38:11;;;;;;;;;7.00;6.25;;;;;20.69;53.62;99046.81;5060174;28;45515;-78
2021/10/30 06:40:36;;;;;;;;;7.00;6.00;;;;;20.68;53.59;99052.19;5061338;28;45343;-79
2021/10/30 06:43:01;;;;;;;;;8.00;5.25;;;;;20.64;53.65;99037.41;5059820;28;45672;-79
2021/10/30 06:45:29;;;;;;;;;5.00;5.00;;;;;20.66;53.35;99051.41;5061975;28;45419;-77
2021/10/30 06:47:55;;;;;;;;;4.75;4.00;;;;;20.66;53.51;99056.72;5042748;28;54825;-78
2021/10/30 06:50:21;;;;;;;;;6.00;6.00;;;;;20.65;53.92;99057.66;5060058;28;45251;-78
2021/10/30 06:52:51;;;;;;;;;6.00;5.75;;;;;20.63;53.88;99038.34;5059811;28;45524;-78
2021/10/30 06:55:17;;;;;;;;;4.50;4.50;;;;;20.66;53.71;99048.75;5042715;28;46829;-78
2021/10/30 06:57:43;;;;;;;;;5.00;5.00;;;;;20.64;53.88;99046.22;5042996;28;45301;-78
2021/10/30 07:00:08;;;;;;;;;4.50;4.50;;;;;20.63;53.55;99046.31;5042662;28;47891;-79
2021/10/30 07:02:34;;;;;;;;;5.50;5.50;;;;;20.63;53.30;99039.19;5059980;28;45550;-78
2021/10/30 07:04:59;;;;;;;;;6.00;6.00;;;;;20.61;53.86;99030.50;5059311;28;45247;-78
2021/10/30 07:07:25;;;;;;;;;5.00;4.00;;;;;20.58;53.69;99031.50;5047616;28;45647;-78
2021/10/30 07:09:54;;;;;;;;;5.50;5.25;;;;;20.62;53.64;99041.94;5058002;28;45193;-79
2021/10/30 07:12:20;;;;;;;;;6.00;5.25;;;;;20.60;53.67;99037.59;5026899;28;46086;-78
2021/10/30 07:14:45;;;;;;;;;6.50;5.50;;;;;20.60;53.82;99040.25;5042517;28;48096;-78
2021/10/30 07:17:11;;;;;;;;;6.00;5.00;;;;;20.59;53.84;99037.69;5059399;28;45314;-78
2021/10/30 07:19:36;;;;;;;;;5.00;4.25;;;;;20.59;53.80;99040.34;5060725;28;45447;-79
2021/10/30 07:22:02;;;;;;;;;6.00;4.50;;;;;20.60;53.49;99044.69;5060341;28;52225;-78
2021/10/30 07:24:27;;;;;;;;;8.50;6.00;;;;;20.61;53.79;99035.78;5075843;28;47003;-79
2021/10/30 07:26:52;;;;;;;;;5.25;5.25;;;;;20.61;53.91;99033.16;5059513;28;52905;-78
2021/10/30 07:29:18;;;;;;;;;3.75;3.75;;;;;20.60;53.82;99036.75;5076160;28;45239;-78
2021/10/30 07:31:43;;;;;;;;;4.25;4.25;;;;;20.65;53.65;99034.66;5041987;28;53871;-78
2021/10/30 07:34:09;;;;;;;;;4.75;4.75;;;;;20.66;53.50;99041.66;5059331;28;45831;-78
2021/10/30 07:36:34;;;;;;;;;5.00;4.75;;;;;20.68;53.48;99034.50;5059756;28;60738;-79
2021/10/30 07:38:59;;;;;;;;;3.00;3.00;;;;;20.68;53.20;99025.69;5059716;28;58481;-78
2021/10/30 07:41:25;;;;;;;;;4.25;3.25;;;;;20.68;53.49;99039.78;5042515;28;45249;-78
2021/10/30 07:43:53;;;;;;;;;3.50;3.50;;;;;20.69;53.23;99046.81;5041534;28;55741;-78
2021/10/30 07:46:20;;;;;;;;;4.50;4.50;;;;;20.70;53.10;99047.66;5026153;28;45370;-79
2021/10/30 07:48:45;;;;;;;;;4.00;4.00;;;;;20.71;53.22;99052.84;5058824;28;45390;-79
2021/10/30 07:51:11;;;;;;;;;4.00;4.00;;;;;20.67;53.29;99053.97;5059212;28;45413;-79
2021/10/30 07:53:36;;;;;;;;;4.00;4.00;;;;;20.69;53.64;99062.72;5045554;28;54048;-79
2021/10/30 07:56:06;;;;;;;;;3.00;3.00;;;;;20.69;53.15;99065.34;5059004;28;45486;-77
2021/10/30 07:58:32;;;;;;;;;5.25;4.75;;;;;20.69;53.17;99068.00;5053647;28;45264;-78
2021/10/30 08:00:57;;;;;;;;;4.75;4.00;;;;;20.70;53.52;99071.50;5050760;28;45285;-78
2021/10/30 08:03:23;;;;;;;;;3.00;3.00;;;;;20.69;53.55;99075.09;5058577;28;45919;-78
2021/10/30 08:05:48;;;;;;;;;5.50;5.50;;;;;20.66;53.36;99070.81;5059388;28;57467;-78
2021/10/30 08:08:13;;;;;;;;;4.25;4.25;;;;;20.68;53.51;99076.06;5058771;28;46030;-78
2021/10/30 08:10:39;;;;;;;;;3.75;3.25;;;;;20.68;53.57;99074.25;5024685;28;56163;-78
2021/10/30 08:13:09;;;;;;;;;4.25;4.25;;;;;20.70;53.33;99084.78;5040923;28;60916;-79
2021/10/30 08:15:34;;;;;;;;;3.50;3.50;;;;;20.67;53.32;99074.31;5042257;28;44815;-77
2021/10/30 08:18:00;;;;;;;;;5.25;3.75;;;;;20.69;53.45;99088.38;5041841;28;45407;-78
2021/10/30 08:20:25;;;;;;;;;6.00;5.00;;;;;20.68;53.56;99081.38;5058613;28;45280;-78
2021/10/30 08:22:50;;;;;;;;;4.00;4.00;;;;;20.66;53.37;99084.06;5059430;28;45232;-79
2021/10/30 08:25:16;;;;;;;;;5.75;3.00;;;;;20.65;53.28;99079.72;5041118;28;56992;-79
2021/10/30 08:27:41;;;;;;;;;4.00;3.00;;;;;20.68;53.56;99094.63;5058332;28;45363;-78
2021/10/30 08:30:07;;;;;;;;;4.00;3.00;;;;;20.64;53.65;99077.16;5058413;28;45267;-78
2021/10/30 08:32:33;;;;;;;;;4.75;4.00;;;;;20.68;53.29;99086.66;5058164;28;45532;-78
2021/10/30 08:34:59;;;;;;;;;6.00;5.00;;;;;20.68;53.55;99091.97;5059660;28;45288;-79
2021/10/30 08:37:24;;;;;;;;;4.00;4.00;;;;;20.64;53.69;99087.78;5061516;28;45379;-78
2021/10/30 08:39:50;;;;;;;;;3.75;3.00;;;;;20.67;53.94;99091.06;5061961;28;45423;-78
2021/10/30 08:42:15;;;;;;;;;6.00;5.00;;;;;20.71;53.64;99086.47;5061542;28;46255;-78
2021/10/30 08:44:44;;;;;;;;;4.00;4.00;;;;;20.72;53.77;99096.97;5045930;28;45466;-79
2021/10/30 08:47:09;;;;;;;;;4.00;4.00;;;;;20.67;54.11;99088.44;5063644;28;45391;-78
2021/10/30 08:49:36;;;;;;;;;3.00;3.00;;;;;20.68;53.80;99079.56;5061957;28;45298;-78
2021/10/30 08:52:05;;;;;;;;;3.75;2.25;;;;;20.75;53.83;99085.34;5044750;28;47076;-78
2021/10/30 08:54:30;;;;;;;;;3.75;3.00;;;;;20.80;53.69;99096.53;5041249;28;45450;-78
2021/10/30 08:56:55;;;;;;;;;3.00;3.00;;;;;20.81;53.58;99095.59;5061313;28;45406;-78
2021/10/30 08:59:42;;;;;;;;;4.00;4.00;;;;;20.78;53.58;99088.69;5061676;28;45497;-77
2021/10/30 09:02:09;;;;;;;;;5.00;4.25;;;;;20.80;53.97;99092.09;5061461;28;45335;-77
2021/10/30 09:04:34;;;;;;;;;6.25;4.00;;;;;20.77;53.85;99086.97;5044473;28;45770;-76
2021/10/30 09:07:01;;;;;;;;;4.50;3.50;;;;;20.78;53.90;99091.31;5047907;28;45231;-78
2021/10/30 09:09:27;;;;;;;;;3.75;3.00;;;;;20.78;53.62;99096.63;5056580;28;45268;-78
2021/10/30 09:11:58;;;;;;;;;4.50;3.00;;;;;20.76;53.79;99089.69;5044439;28;48251;-78
2021/10/30 09:14:28;;;;;;;;;2.75;2.75;;;;;20.76;53.79;99081.72;5044916;28;45402;-80
2021/10/30 09:17:09;;;;;;;;;3.75;3.00;;;;;20.74;54.18;99089.78;5045766;28;45279;-79
2021/10/30 09:19:34;;;;;;;;;3.00;3.00;;;;;20.74;54.17;99091.59;5062786;28;45312;-78
2021/10/30 09:22:04;;;;;;;;;4.50;4.00;;;;;20.73;54.16;99098.69;5062485;28;46327;-78
2021/10/30 09:24:29;;;;;;;;;5.00;5.00;;;;;20.74;54.32;99094.22;5061154;28;45296;-79
2021/10/30 09:26:54;;;;;;;;;5.75;4.00;;;;;20.74;54.28;99099.53;5062047;28;49213;-79
2021/10/30 09:29:20;;;;;;;;;6.00;4.75;;;;;20.71;54.15;99099.72;5043953;28;51312;-80
2021/10/30 09:31:45;;;;;;;;;3.00;3.00;;;;;20.73;54.49;99111.09;5060136;28;65496;-79
2021/10/30 09:34:12;;;;;;;;;4.00;4.00;;;;;20.68;54.35;99095.47;5060799;28;51019;-79
2021/10/30 09:36:39;;;;;;;;;3.50;3.50;;;;;20.72;54.75;99114.69;5044673;28;45383;-79
2021/10/30 09:39:10;;;;;;;;;5.00;5.00;;;;;20.71;54.67;99111.19;5044261;28;45464;-79
2021/10/30 09:41:40;;;;;;;;;5.00;5.00;;;;;20.72;54.86;99106.72;5060804;28;46614;-79
2021/10/30 09:44:17;;;;;;;;;4.00;4.00;;;;;20.71;54.74;99110.34;5062486;28;45170;-77
2021/10/30 09:46:52;;;;;;;;;5.75;4.50;;;;;20.68;54.69;99100.78;5062126;28;45244;-77
2021/10/30 09:49:22;;;;;;;;;3.75;3.75;;;;;20.63;54.73;99097.53;5066367;28;45325;-77
2021/10/30 09:51:48;;;;;;;;;3.00;3.00;;;;;20.68;54.60;99106.06;5044211;28;48375;-77
2021/10/30 09:54:33;;;;;;;;;3.25;3.25;;;;;20.67;54.90;99106.13;5040851;28;45252;-78
2021/10/30 09:56:58;;;;;;;;;7.25;4.25;;;;;20.65;54.86;99108.88;5061816;28;45552;-78
2021/10/30 09:59:24;;;;;;;;;3.00;3.00;;;;;20.68;54.74;99106.06;5027593;28;45301;-77
2021/10/30 10:01:50;;;;;;;;;5.25;3.25;;;;;20.70;54.98;99111.28;5043956;28;47140;-78
2021/10/30 10:04:16;;;;;;;;;4.00;4.00;;;;;20.72;54.73;99112.88;5047021;28;45585;-79
2021/10/30 10:06:54;;;;;;;;;3.50;3.50;;;;;20.68;54.98;99092.81;5064104;28;45268;-78
2021/10/30 10:09:20;;;;;;;;;3.50;3.50;;;;;20.75;55.09;99107.41;5044152;28;45470;-77
2021/10/30 10:11:49;;;;;;;;;4.00;4.00;;;;;20.78;54.81;99109.03;5044611;28;47225;-77
2021/10/30 10:14:15;;;;;;;;;4.00;4.00;;;;;20.80;54.77;99115.09;5056645;28;45216;-79
2021/10/30 10:16:45;;;;;;;;;6.00;4.25;;;;;20.83;54.92;99112.25;5069174;28;45164;-79
2021/10/30 10:19:10;;;;;;;;;5.00;5.00;;;;;20.85;54.77;99116.53;5045987;28;45409;-79
2021/10/30 10:21:38;;;;;;;;;4.00;4.00;;;;;20.83;54.67;99125.50;5044634;28;47169;-78
2021/10/30 10:24:50;;;;;;;;;;;;;;;;;;;;;
2021/10/30 10:27:16;;;;;;;;;3.75;3.00;;;;;20.81;54.33;99128.25;4966213;28;67378;-79
2021/10/30 10:29:45;;;;;;;;;3.25;3.25;;;;;20.84;54.80;99129.88;5055068;28;45338;-78
2021/10/30 10:32:21;;;;;;;;;5.50;4.25;;;;;20.81;54.75;99133.56;5060315;28;47756;-78
2021/10/30 10:34:47;;;;;;;;;4.00;4.00;;;;;20.83;54.72;99134.31;5048996;28;45381;-77
2021/10/30 10:37:17;;;;;;;;;4.00;4.00;;;;;20.80;54.67;99123.06;5045796;28;45495;-77
2021/10/30 10:39:43;;;;;;;;;4.75;4.00;;;;;20.84;54.89;99127.22;5077732;28;45300;-78
2021/10/30 10:42:19;;;;;;;;;4.50;3.25;;;;;20.84;54.46;99127.22;5059670;28;45315;-79
2021/10/30 10:48:11;;;;;;;;;5.00;4.25;;;;;20.80;54.65;99136.31;5059027;28;45478;-78
2021/10/30 10:50:39;;;;;;;;;4.00;4.00;;;;;20.82;54.94;99137.06;5043353;28;45182;-78
2021/10/30 10:53:09;;;;;;;;;4.25;4.00;;;;;20.82;54.73;99132.63;5028009;28;45431;-77
2021/10/30 10:55:35;;;;;;;;;5.00;5.00;;;;;20.82;54.83;99137.91;5059841;28;45284;-78
2021/10/30 10:58:05;;;;;;;;;5.00;4.00;;;;;20.82;55.05;99132.63;5059588;28;45296;-78
2021/10/30 11:00:31;;;;;;;;;4.00;4.00;;;;;20.83;55.09;99133.47;5058964;28;45581;-77
2021/10/30 11:03:09;;;;;;;;;6.25;3.50;;;;;20.78;55.14;99120.50;5060027;28;45507;-77
2021/10/30 11:05:40;;;;;;;;;5.00;5.00;;;;;20.81;54.96;99124.75;5059607;28;45526;-77
2021/10/30 11:08:08;;;;;;;;;5.00;5.00;;;;;20.84;55.21;99133.38;5044059;28;45428;-78
2021/10/30 11:10:36;;;;;;;;;5.00;5.00;;;;;20.81;55.01;99112.34;5076422;28;45586;-77
2021/10/30 11:13:09;;;;;;;;;4.25;3.75;;;;;20.80;55.19;99110.66;5059424;28;46847;-78
2021/10/30 11:15:42;;;;;;;;;5.00;5.00;;;;;20.84;55.08;99128.06;5043195;28;45286;-77
2021/10/30 11:18:27;;;;;;;;;4.00;4.00;;;;;20.85;55.12;99124.50;5076827;28;45398;-77
2021/10/30 11:21:40;;;;;;;;;6.00;5.75;;;;;20.88;55.06;99118.16;5029254;28;45616;-78
2021/10/30 11:24:23;;;;;;;;;6.75;5.00;;;;;20.86;55.39;99110.28;5023106;28;45341;-78
2021/10/30 11:27:01;;;;;;;;;7.00;5.00;;;;;20.89;55.30;99114.56;5042410;28;45308;-78
2021/10/30 11:29:26;;;;;;;;;8.00;7.00;;;;;20.92;55.26;99113.50;5059150;28;45367;-78
2021/10/30 11:31:55;;;;;;;;;4.25;4.00;;;;;20.94;55.46;99117.81;5042820;28;45439;-78
2021/10/30 11:34:21;;;;;;;;;4.50;4.00;;;;;20.95;55.36;99119.50;5059116;28;45252;-77
2021/10/30 11:36:47;;;;;;;;;4.75;4.75;;;;;20.89;55.25;99109.25;5042511;28;45269;-78